< < Back
Terminal Aerodrome Forecast


Current Version              Previous Versions:   1  2  3  4  5  6  7  8  9  

Terminal Aerodrome Forecast

171
FTUS44 KMRX 181120
TAFCHA
TAF
KCHA 181120Z 1812/1912 00000KT 1/4SM FG VV002
      TEMPO 1812/1814 1SM BR BKN007
     FM181400 00000KT 3SM BR BKN010
      TEMPO 1814/1816 6SM BR SCT015
     FM181600 05003KT P6SM SCT025 BKN150
     FM182000 11009KT P6SM VCSH BKN040
     FM190600 14007KT 4SM -SHRA OVC035
     FM190800 16007KT 2SM RA OVC015=



Latest METAR

512
SAUS80 KWBC 190800
MTRCHA
METAR KCHA 190753Z AUTO 16004KT 10SM -RA SCT014 BKN055 OVC070 19/17
A2984 RMK AO2 RAB45 SLP098 P0000 T01940172


USA.gov is the U.S. government's official web portal to all federal, state and local government web resources and services.